sensor_id;sensor_type;location;lat;lon;timestamp;P1;durP1;ratioP1;P2;durP2;ratioP2
72601;SDS011;60644;55.858;37.390;2023-03-12T00:01:39;11.13;;;4.25;;
72601;SDS011;60644;55.858;37.390;2023-03-12T00:04:05;13.98;;;3.97;;
72601;SDS011;60644;55.858;37.390;2023-03-12T00:06:31;12.05;;;4.47;;
72601;SDS011;60644;55.858;37.390;2023-03-12T00:08:57;11.90;;;4.77;;
72601;SDS011;60644;55.858;37.390;2023-03-12T00:11:26;11.82;;;4.15;;
72601;SDS011;60644;55.858;37.390;2023-03-12T00:13:53;11.10;;;4.15;;
72601;SDS011;60644;55.858;37.390;2023-03-12T00:16:20;11.27;;;4.10;;
72601;SDS011;60644;55.858;37.390;2023-03-12T00:18:47;13.27;;;4.68;;
72601;SDS011;60644;55.858;37.390;2023-03-12T00:21:15;12.80;;;5.03;;
72601;SDS011;60644;55.858;37.390;2023-03-12T00:23:41;15.45;;;6.22;;
72601;SDS011;60644;55.858;37.390;2023-03-12T00:26:09;13.68;;;5.32;;
72601;SDS011;60644;55.858;37.390;2023-03-12T00:28:36;12.07;;;4.63;;
72601;SDS011;60644;55.858;37.390;2023-03-12T00:31:13;15.00;;;5.82;;
72601;SDS011;60644;55.858;37.390;2023-03-12T00:33:41;17.47;;;6.20;;
72601;SDS011;60644;55.858;37.390;2023-03-12T00:36:07;15.63;;;6.00;;
72601;SDS011;60644;55.858;37.390;2023-03-12T00:38:33;14.50;;;5.80;;
72601;SDS011;60644;55.858;37.390;2023-03-12T00:41:00;13.55;;;5.75;;
72601;SDS011;60644;55.858;37.390;2023-03-12T00:43:26;15.70;;;6.00;;
72601;SDS011;60644;55.858;37.390;2023-03-12T00:45:52;13.85;;;5.95;;
72601;SDS011;60644;55.858;37.390;2023-03-12T00:48:17;17.80;;;6.43;;
72601;SDS011;60644;55.858;37.390;2023-03-12T00:50:43;13.83;;;6.00;;
72601;SDS011;60644;55.858;37.390;2023-03-12T00:53:09;17.45;;;6.38;;
72601;SDS011;60644;55.858;37.390;2023-03-12T00:55:35;17.13;;;6.22;;
72601;SDS011;60644;55.858;37.390;2023-03-12T00:58:01;17.02;;;6.28;;
72601;SDS011;60644;55.858;37.390;2023-03-12T01:00:28;15.45;;;5.95;;
72601;SDS011;60644;55.858;37.390;2023-03-12T01:02:54;17.55;;;5.78;;
72601;SDS011;60644;55.858;37.390;2023-03-12T01:05:19;16.73;;;5.90;;
72601;SDS011;60644;55.858;37.390;2023-03-12T01:07:46;17.38;;;6.65;;
72601;SDS011;60644;55.858;37.390;2023-03-12T01:10:12;17.48;;;6.57;;
72601;SDS011;60644;55.858;37.390;2023-03-12T01:12:40;17.67;;;6.45;;
72601;SDS011;60644;55.858;37.390;2023-03-12T01:15:08;19.73;;;6.37;;
72601;SDS011;60644;55.858;37.390;2023-03-12T01:17:36;20.20;;;6.88;;
72601;SDS011;60644;55.858;37.390;2023-03-12T01:20:02;17.80;;;6.82;;
72601;SDS011;60644;55.858;37.390;2023-03-12T01:22:30;17.73;;;6.40;;
72601;SDS011;60644;55.858;37.390;2023-03-12T01:24:55;16.53;;;6.53;;
72601;SDS011;60644;55.858;37.390;2023-03-12T01:27:21;17.27;;;6.60;;
72601;SDS011;60644;55.858;37.390;2023-03-12T01:29:47;20.02;;;7.18;;
72601;SDS011;60644;55.858;37.390;2023-03-12T01:32:13;18.63;;;6.83;;
72601;SDS011;60644;55.858;37.390;2023-03-12T01:34:41;20.75;;;9.13;;
72601;SDS011;60644;55.858;37.390;2023-03-12T01:37:08;17.50;;;6.00;;
72601;SDS011;60644;55.858;37.390;2023-03-12T01:39:34;21.05;;;7.95;;
72601;SDS011;60644;55.858;37.390;2023-03-12T01:42:00;19.73;;;6.70;;
72601;SDS011;60644;55.858;37.390;2023-03-12T01:44:26;22.45;;;9.02;;
72601;SDS011;60644;55.858;37.390;2023-03-12T01:46:53;22.63;;;9.10;;
72601;SDS011;60644;55.858;37.390;2023-03-12T01:51:54;26.35;;;8.65;;
72601;SDS011;60644;55.858;37.390;2023-03-12T01:54:30;28.93;;;10.13;;
72601;SDS011;60644;55.858;37.390;2023-03-12T01:57:07;22.02;;;7.78;;
72601;SDS011;60644;55.858;37.390;2023-03-12T01:59:39;32.08;;;11.40;;
72601;SDS011;60644;55.858;37.390;2023-03-12T02:02:08;23.83;;;9.32;;
72601;SDS011;60644;55.858;37.390;2023-03-12T02:04:35;29.67;;;10.38;;
72601;SDS011;60644;55.858;37.390;2023-03-12T02:07:06;32.93;;;11.93;;
72601;SDS011;60644;55.858;37.390;2023-03-12T02:09:40;32.92;;;12.13;;
72601;SDS011;60644;55.858;37.390;2023-03-12T02:12:09;38.65;;;12.40;;
72601;SDS011;60644;55.858;37.390;2023-03-12T02:14:36;31.25;;;9.02;;
72601;SDS011;60644;55.858;37.390;2023-03-12T02:17:02;38.42;;;12.52;;
72601;SDS011;60644;55.858;37.390;2023-03-12T02:22:13;42.78;;;13.57;;
72601;SDS011;60644;55.858;37.390;2023-03-12T02:27:59;33.03;;;10.20;;
72601;SDS011;60644;55.858;37.390;2023-03-12T02:30:27;30.87;;;12.17;;
72601;SDS011;60644;55.858;37.390;2023-03-12T02:32:55;34.72;;;13.18;;
72601;SDS011;60644;55.858;37.390;2023-03-12T02:35:22;34.17;;;12.30;;
72601;SDS011;60644;55.858;37.390;2023-03-12T02:37:48;33.38;;;11.07;;
72601;SDS011;60644;55.858;37.390;2023-03-12T02:42:53;83.88;;;16.42;;
72601;SDS011;60644;55.858;37.390;2023-03-12T02:45:20;88.72;;;18.65;;
72601;SDS011;60644;55.858;37.390;2023-03-12T02:47:46;49.97;;;15.95;;
72601;SDS011;60644;55.858;37.390;2023-03-12T02:50:12;46.78;;;15.02;;
72601;SDS011;60644;55.858;37.390;2023-03-12T02:52:38;50.28;;;14.95;;
72601;SDS011;60644;55.858;37.390;2023-03-12T02:55:04;51.20;;;14.20;;
72601;SDS011;60644;55.858;37.390;2023-03-12T02:57:31;44.10;;;13.13;;
72601;SDS011;60644;55.858;37.390;2023-03-12T02:59:58;41.10;;;12.70;;
72601;SDS011;60644;55.858;37.390;2023-03-12T03:02:24;36.83;;;12.32;;
72601;SDS011;60644;55.858;37.390;2023-03-12T03:04:50;39.80;;;13.35;;
72601;SDS011;60644;55.858;37.390;2023-03-12T03:07:16;34.17;;;11.75;;
72601;SDS011;60644;55.858;37.390;2023-03-12T03:09:42;39.40;;;12.97;;
72601;SDS011;60644;55.858;37.390;2023-03-12T03:12:10;40.90;;;13.43;;
72601;SDS011;60644;55.858;37.390;2023-03-12T03:14:37;36.65;;;12.00;;
72601;SDS011;60644;55.858;37.390;2023-03-12T03:17:03;37.53;;;11.70;;
72601;SDS011;60644;55.858;37.390;2023-03-12T03:19:29;36.08;;;12.73;;
72601;SDS011;60644;55.858;37.390;2023-03-12T03:21:55;46.50;;;14.25;;
72601;SDS011;60644;55.858;37.390;2023-03-12T03:24:21;38.47;;;12.98;;
72601;SDS011;60644;55.858;37.390;2023-03-12T03:26:46;39.30;;;11.27;;
72601;SDS011;60644;55.858;37.390;2023-03-12T03:29:12;31.50;;;10.35;;
72601;SDS011;60644;55.858;37.390;2023-03-12T03:31:38;32.35;;;10.77;;
72601;SDS011;60644;55.858;37.390;2023-03-12T03:34:04;38.10;;;11.80;;
72601;SDS011;60644;55.858;37.390;2023-03-12T03:36:30;35.75;;;11.43;;
72601;SDS011;60644;55.858;37.390;2023-03-12T03:39:01;33.65;;;10.60;;
72601;SDS011;60644;55.858;37.390;2023-03-12T03:41:29;33.23;;;11.07;;
72601;SDS011;60644;55.858;37.390;2023-03-12T03:43:57;31.58;;;10.13;;
72601;SDS011;60644;55.858;37.390;2023-03-12T03:46:29;52.67;;;13.10;;
72601;SDS011;60644;55.858;37.390;2023-03-12T03:49:00;35.80;;;11.57;;
72601;SDS011;60644;55.858;37.390;2023-03-12T03:51:28;34.38;;;10.70;;
72601;SDS011;60644;55.858;37.390;2023-03-12T03:53:58;34.37;;;11.97;;
72601;SDS011;60644;55.858;37.390;2023-03-12T03:56:25;37.78;;;11.32;;
72601;SDS011;60644;55.858;37.390;2023-03-12T03:58:51;32.80;;;10.98;;
72601;SDS011;60644;55.858;37.390;2023-03-12T04:01:19;35.80;;;11.73;;
72601;SDS011;60644;55.858;37.390;2023-03-12T04:03:46;35.58;;;10.10;;
72601;SDS011;60644;55.858;37.390;2023-03-12T04:06:12;37.60;;;12.60;;
72601;SDS011;60644;55.858;37.390;2023-03-12T04:08:38;36.33;;;11.88;;
72601;SDS011;60644;55.858;37.390;2023-03-12T04:11:09;37.50;;;12.00;;
72601;SDS011;60644;55.858;37.390;2023-03-12T04:13:37;40.58;;;11.02;;
72601;SDS011;60644;55.858;37.390;2023-03-12T04:16:04;36.65;;;13.10;;
72601;SDS011;60644;55.858;37.390;2023-03-12T04:18:31;26.07;;;8.67;;
72601;SDS011;60644;55.858;37.390;2023-03-12T04:20:58;29.48;;;8.77;;
72601;SDS011;60644;55.858;37.390;2023-03-12T04:23:24;34.60;;;11.00;;
72601;SDS011;60644;55.858;37.390;2023-03-12T04:25:51;38.28;;;11.85;;
72601;SDS011;60644;55.858;37.390;2023-03-12T04:28:16;36.70;;;12.13;;
72601;SDS011;60644;55.858;37.390;2023-03-12T04:30:42;31.83;;;10.57;;
72601;SDS011;60644;55.858;37.390;2023-03-12T04:33:08;34.92;;;10.85;;
72601;SDS011;60644;55.858;37.390;2023-03-12T04:35:34;37.70;;;11.73;;
72601;SDS011;60644;55.858;37.390;2023-03-12T04:38:02;47.00;;;13.45;;
72601;SDS011;60644;55.858;37.390;2023-03-12T04:40:29;36.60;;;10.93;;
72601;SDS011;60644;55.858;37.390;2023-03-12T04:42:55;36.97;;;12.30;;
72601;SDS011;60644;55.858;37.390;2023-03-12T04:45:21;36.95;;;12.05;;
72601;SDS011;60644;55.858;37.390;2023-03-12T04:47:48;39.33;;;12.43;;
72601;SDS011;60644;55.858;37.390;2023-03-12T04:50:14;36.20;;;11.95;;
72601;SDS011;60644;55.858;37.390;2023-03-12T04:52:41;33.95;;;11.57;;
72601;SDS011;60644;55.858;37.390;2023-03-12T04:55:07;91.13;;;16.05;;
72601;SDS011;60644;55.858;37.390;2023-03-12T04:57:33;48.33;;;11.77;;
72601;SDS011;60644;55.858;37.390;2023-03-12T04:59:59;37.13;;;11.37;;
72601;SDS011;60644;55.858;37.390;2023-03-12T05:02:25;34.65;;;10.68;;
72601;SDS011;60644;55.858;37.390;2023-03-12T05:04:54;33.50;;;9.88;;
72601;SDS011;60644;55.858;37.390;2023-03-12T05:07:21;26.80;;;9.82;;
72601;SDS011;60644;55.858;37.390;2023-03-12T05:09:47;29.93;;;10.40;;
72601;SDS011;60644;55.858;37.390;2023-03-12T05:12:13;43.53;;;12.32;;
72601;SDS011;60644;55.858;37.390;2023-03-12T05:14:39;39.60;;;11.77;;
72601;SDS011;60644;55.858;37.390;2023-03-12T05:17:06;31.60;;;9.47;;
72601;SDS011;60644;55.858;37.390;2023-03-12T05:19:33;36.58;;;10.90;;
72601;SDS011;60644;55.858;37.390;2023-03-12T05:21:59;37.63;;;11.88;;
72601;SDS011;60644;55.858;37.390;2023-03-12T05:24:25;37.78;;;11.73;;
72601;SDS011;60644;55.858;37.390;2023-03-12T05:26:52;34.10;;;10.70;;
72601;SDS011;60644;55.858;37.390;2023-03-12T05:29:21;32.83;;;11.15;;
72601;SDS011;60644;55.858;37.390;2023-03-12T05:31:47;36.28;;;11.18;;
72601;SDS011;60644;55.858;37.390;2023-03-12T05:34:14;32.35;;;10.10;;
72601;SDS011;60644;55.858;37.390;2023-03-12T05:36:42;36.35;;;11.00;;
72601;SDS011;60644;55.858;37.390;2023-03-12T05:39:09;31.05;;;10.18;;
72601;SDS011;60644;55.858;37.390;2023-03-12T05:41:36;32.50;;;10.57;;
72601;SDS011;60644;55.858;37.390;2023-03-12T05:44:10;23.50;;;7.78;;
72601;SDS011;60644;55.858;37.390;2023-03-12T05:46:39;28.52;;;9.25;;
72601;SDS011;60644;55.858;37.390;2023-03-12T05:49:05;32.37;;;9.40;;
72601;SDS011;60644;55.858;37.390;2023-03-12T05:51:32;31.33;;;10.23;;
72601;SDS011;60644;55.858;37.390;2023-03-12T05:53:58;26.77;;;8.40;;
72601;SDS011;60644;55.858;37.390;2023-03-12T05:56:25;23.95;;;8.40;;
72601;SDS011;60644;55.858;37.390;2023-03-12T05:58:51;25.05;;;6.93;;
72601;SDS011;60644;55.858;37.390;2023-03-12T06:01:19;28.80;;;8.23;;
72601;SDS011;60644;55.858;37.390;2023-03-12T06:03:52;30.35;;;9.98;;
72601;SDS011;60644;55.858;37.390;2023-03-12T06:06:18;33.20;;;8.68;;
72601;SDS011;60644;55.858;37.390;2023-03-12T06:08:45;25.42;;;7.57;;
72601;SDS011;60644;55.858;37.390;2023-03-12T06:11:12;24.67;;;9.30;;
72601;SDS011;60644;55.858;37.390;2023-03-12T06:13:38;32.08;;;10.23;;
72601;SDS011;60644;55.858;37.390;2023-03-12T06:16:11;33.60;;;11.23;;
72601;SDS011;60644;55.858;37.390;2023-03-12T06:18:44;35.40;;;10.43;;
72601;SDS011;60644;55.858;37.390;2023-03-12T06:21:14;32.27;;;9.07;;
72601;SDS011;60644;55.858;37.390;2023-03-12T06:23:45;30.50;;;9.55;;
72601;SDS011;60644;55.858;37.390;2023-03-12T06:26:17;32.97;;;9.60;;
72601;SDS011;60644;55.858;37.390;2023-03-12T06:28:44;21.30;;;7.15;;
72601;SDS011;60644;55.858;37.390;2023-03-12T06:31:11;28.08;;;8.30;;
72601;SDS011;60644;55.858;37.390;2023-03-12T06:33:37;27.47;;;9.33;;
72601;SDS011;60644;55.858;37.390;2023-03-12T06:36:04;34.22;;;10.55;;
72601;SDS011;60644;55.858;37.390;2023-03-12T06:38:31;30.70;;;10.00;;
72601;SDS011;60644;55.858;37.390;2023-03-12T06:41:05;33.45;;;10.68;;
72601;SDS011;60644;55.858;37.390;2023-03-12T06:43:33;33.10;;;10.13;;
72601;SDS011;60644;55.858;37.390;2023-03-12T06:46:00;22.90;;;8.03;;
72601;SDS011;60644;55.858;37.390;2023-03-12T06:48:28;32.03;;;10.13;;
72601;SDS011;60644;55.858;37.390;2023-03-12T06:50:57;29.60;;;8.57;;
72601;SDS011;60644;55.858;37.390;2023-03-12T06:53:24;29.05;;;9.70;;
72601;SDS011;60644;55.858;37.390;2023-03-12T06:55:51;34.58;;;11.18;;
72601;SDS011;60644;55.858;37.390;2023-03-12T06:58:17;32.27;;;10.47;;
72601;SDS011;60644;55.858;37.390;2023-03-12T07:00:43;32.42;;;10.00;;
72601;SDS011;60644;55.858;37.390;2023-03-12T07:03:10;33.45;;;11.15;;
72601;SDS011;60644;55.858;37.390;2023-03-12T07:05:35;37.17;;;11.65;;
72601;SDS011;60644;55.858;37.390;2023-03-12T07:08:01;33.43;;;10.10;;
72601;SDS011;60644;55.858;37.390;2023-03-12T07:10:27;42.28;;;11.27;;
72601;SDS011;60644;55.858;37.390;2023-03-12T07:12:54;37.65;;;12.25;;
72601;SDS011;60644;55.858;37.390;2023-03-12T07:15:21;27.83;;;8.95;;
72601;SDS011;60644;55.858;37.390;2023-03-12T07:17:50;40.45;;;12.38;;
72601;SDS011;60644;55.858;37.390;2023-03-12T07:20:16;38.60;;;13.70;;
72601;SDS011;60644;55.858;37.390;2023-03-12T07:22:42;42.85;;;12.00;;
72601;SDS011;60644;55.858;37.390;2023-03-12T07:25:08;44.55;;;13.52;;
72601;SDS011;60644;55.858;37.390;2023-03-12T07:27:35;36.87;;;13.03;;
72601;SDS011;60644;55.858;37.390;2023-03-12T07:30:00;45.95;;;13.80;;
72601;SDS011;60644;55.858;37.390;2023-03-12T07:32:27;44.72;;;13.70;;
72601;SDS011;60644;55.858;37.390;2023-03-12T07:34:53;41.83;;;13.43;;
72601;SDS011;60644;55.858;37.390;2023-03-12T07:37:19;50.80;;;13.93;;
72601;SDS011;60644;55.858;37.390;2023-03-12T07:39:45;50.33;;;14.98;;
72601;SDS011;60644;55.858;37.390;2023-03-12T07:42:15;43.53;;;13.10;;
72601;SDS011;60644;55.858;37.390;2023-03-12T07:44:42;46.35;;;14.00;;
72601;SDS011;60644;55.858;37.390;2023-03-12T07:47:08;46.22;;;12.68;;
72601;SDS011;60644;55.858;37.390;2023-03-12T07:49:34;44.08;;;12.95;;
72601;SDS011;60644;55.858;37.390;2023-03-12T07:52:00;55.90;;;14.27;;
72601;SDS011;60644;55.858;37.390;2023-03-12T07:54:45;42.78;;;13.05;;
72601;SDS011;60644;55.858;37.390;2023-03-12T07:57:11;47.28;;;14.23;;
72601;SDS011;60644;55.858;37.390;2023-03-12T07:59:41;49.92;;;14.30;;
72601;SDS011;60644;55.858;37.390;2023-03-12T08:02:08;48.47;;;14.50;;
72601;SDS011;60644;55.858;37.390;2023-03-12T08:04:34;43.13;;;12.55;;
72601;SDS011;60644;55.858;37.390;2023-03-12T08:07:00;44.60;;;12.50;;
72601;SDS011;60644;55.858;37.390;2023-03-12T08:09:26;41.88;;;12.25;;
72601;SDS011;60644;55.858;37.390;2023-03-12T08:11:53;46.20;;;13.83;;
72601;SDS011;60644;55.858;37.390;2023-03-12T08:14:19;41.47;;;12.40;;
72601;SDS011;60644;55.858;37.390;2023-03-12T08:16:45;45.33;;;12.95;;
72601;SDS011;60644;55.858;37.390;2023-03-12T08:19:11;47.78;;;13.35;;
72601;SDS011;60644;55.858;37.390;2023-03-12T08:21:37;47.03;;;13.80;;
72601;SDS011;60644;55.858;37.390;2023-03-12T08:24:03;47.83;;;13.95;;
72601;SDS011;60644;55.858;37.390;2023-03-12T08:26:29;45.95;;;13.55;;
72601;SDS011;60644;55.858;37.390;2023-03-12T08:28:54;42.00;;;12.07;;
72601;SDS011;60644;55.858;37.390;2023-03-12T08:31:20;45.35;;;12.65;;
72601;SDS011;60644;55.858;37.390;2023-03-12T08:33:46;39.83;;;12.38;;
72601;SDS011;60644;55.858;37.390;2023-03-12T08:36:12;39.53;;;12.37;;
72601;SDS011;60644;55.858;37.390;2023-03-12T08:38:38;32.72;;;9.90;;
72601;SDS011;60644;55.858;37.390;2023-03-12T08:41:04;34.63;;;10.82;;
72601;SDS011;60644;55.858;37.390;2023-03-12T08:43:30;27.40;;;9.50;;
72601;SDS011;60644;55.858;37.390;2023-03-12T08:45:57;42.00;;;11.30;;
72601;SDS011;60644;55.858;37.390;2023-03-12T08:48:25;36.97;;;11.52;;
72601;SDS011;60644;55.858;37.390;2023-03-12T08:50:53;35.67;;;9.95;;
72601;SDS011;60644;55.858;37.390;2023-03-12T08:53:20;31.10;;;9.13;;
72601;SDS011;60644;55.858;37.390;2023-03-12T08:55:46;32.35;;;9.57;;
72601;SDS011;60644;55.858;37.390;2023-03-12T08:58:12;36.63;;;9.27;;
72601;SDS011;60644;55.858;37.390;2023-03-12T09:00:38;26.17;;;8.07;;
72601;SDS011;60644;55.858;37.390;2023-03-12T09:03:08;32.33;;;8.75;;
72601;SDS011;60644;55.858;37.390;2023-03-12T09:05:38;29.77;;;9.47;;
72601;SDS011;60644;55.858;37.390;2023-03-12T09:08:04;27.30;;;7.68;;
72601;SDS011;60644;55.858;37.390;2023-03-12T09:10:30;27.02;;;8.20;;
72601;SDS011;60644;55.858;37.390;2023-03-12T09:12:55;24.07;;;7.47;;
72601;SDS011;60644;55.858;37.390;2023-03-12T09:15:21;32.10;;;8.85;;
72601;SDS011;60644;55.858;37.390;2023-03-12T09:17:47;26.65;;;8.10;;
72601;SDS011;60644;55.858;37.390;2023-03-12T09:20:13;25.00;;;7.93;;
72601;SDS011;60644;55.858;37.390;2023-03-12T09:22:39;29.58;;;8.27;;
72601;SDS011;60644;55.858;37.390;2023-03-12T09:25:06;29.97;;;8.63;;
72601;SDS011;60644;55.858;37.390;2023-03-12T09:27:37;26.90;;;7.85;;
72601;SDS011;60644;55.858;37.390;2023-03-12T09:30:04;26.92;;;7.32;;
72601;SDS011;60644;55.858;37.390;2023-03-12T09:32:32;30.60;;;8.07;;
72601;SDS011;60644;55.858;37.390;2023-03-12T09:34:58;27.77;;;6.78;;
72601;SDS011;60644;55.858;37.390;2023-03-12T09:37:24;26.63;;;6.77;;
72601;SDS011;60644;55.858;37.390;2023-03-12T09:39:52;26.45;;;7.65;;
72601;SDS011;60644;55.858;37.390;2023-03-12T09:42:22;29.15;;;7.65;;
72601;SDS011;60644;55.858;37.390;2023-03-12T09:44:52;24.23;;;6.80;;
72601;SDS011;60644;55.858;37.390;2023-03-12T09:47:24;27.15;;;7.97;;
72601;SDS011;60644;55.858;37.390;2023-03-12T09:52:52;26.55;;;7.03;;
72601;SDS011;60644;55.858;37.390;2023-03-12T09:55:23;24.67;;;7.25;;
72601;SDS011;60644;55.858;37.390;2023-03-12T09:57:50;20.65;;;6.80;;
72601;SDS011;60644;55.858;37.390;2023-03-12T10:00:17;21.23;;;6.10;;
72601;SDS011;60644;55.858;37.390;2023-03-12T10:05:35;22.30;;;6.95;;
72601;SDS011;60644;55.858;37.390;2023-03-12T10:08:04;28.98;;;6.95;;
72601;SDS011;60644;55.858;37.390;2023-03-12T10:15:49;23.80;;;6.35;;
72601;SDS011;60644;55.858;37.390;2023-03-12T10:18:20;22.58;;;6.65;;
72601;SDS011;60644;55.858;37.390;2023-03-12T10:26:39;24.38;;;7.47;;
72601;SDS011;60644;55.858;37.390;2023-03-12T10:31:45;35.42;;;8.55;;
72601;SDS011;60644;55.858;37.390;2023-03-12T10:34:42;21.42;;;6.68;;
72601;SDS011;60644;55.858;37.390;2023-03-12T10:37:27;26.27;;;6.68;;
72601;SDS011;60644;55.858;37.390;2023-03-12T10:40:02;19.55;;;6.40;;
72601;SDS011;60644;55.858;37.390;2023-03-12T10:42:30;20.50;;;6.45;;
72601;SDS011;60644;55.858;37.390;2023-03-12T10:45:05;19.75;;;6.47;;
72601;SDS011;60644;55.858;37.390;2023-03-12T10:47:43;21.95;;;7.15;;
72601;SDS011;60644;55.858;37.390;2023-03-12T10:52:46;20.13;;;5.93;;
72601;SDS011;60644;55.858;37.390;2023-03-12T10:55:24;21.20;;;6.10;;
72601;SDS011;60644;55.858;37.390;2023-03-12T10:57:51;19.85;;;6.43;;
72601;SDS011;60644;55.858;37.390;2023-03-12T11:00:19;17.63;;;6.20;;
72601;SDS011;60644;55.858;37.390;2023-03-12T11:02:54;22.65;;;6.60;;
72601;SDS011;60644;55.858;37.390;2023-03-12T11:05:24;22.67;;;7.40;;
72601;SDS011;60644;55.858;37.390;2023-03-12T11:07:54;21.58;;;6.10;;
72601;SDS011;60644;55.858;37.390;2023-03-12T11:10:24;19.50;;;6.60;;
72601;SDS011;60644;55.858;37.390;2023-03-12T11:13:08;20.33;;;7.43;;
72601;SDS011;60644;55.858;37.390;2023-03-12T11:15:57;8.07;;;2.40;;
72601;SDS011;60644;55.858;37.390;2023-03-12T11:23:33;4.07;;;0.40;;
72601;SDS011;60644;55.858;37.390;2023-03-12T11:26:01;1.27;;;0.20;;
72601;SDS011;60644;55.858;37.390;2023-03-12T11:28:40;2.05;;;0.20;;
72601;SDS011;60644;55.858;37.390;2023-03-12T11:31:19;1.17;;;0.20;;
72601;SDS011;60644;55.858;37.390;2023-03-12T11:33:50;2.28;;;0.40;;
72601;SDS011;60644;55.858;37.390;2023-03-12T11:36:33;3.03;;;0.35;;
72601;SDS011;60644;55.858;37.390;2023-03-12T11:47:58;0.88;;;0.13;;
72601;SDS011;60644;55.858;37.390;2023-03-12T11:56:15;2.55;;;0.20;;
72601;SDS011;60644;55.858;37.390;2023-03-12T12:01:21;2.00;;;0.20;;
72601;SDS011;60644;55.858;37.390;2023-03-12T12:06:49;1.37;;;0.20;;
72601;SDS011;60644;55.858;37.390;2023-03-12T12:16:08;0.80;;;0.10;;
72601;SDS011;60644;55.858;37.390;2023-03-12T12:25:15;2.28;;;0.13;;
72601;SDS011;60644;55.858;37.390;2023-03-12T12:35:43;3.63;;;0.40;;
72601;SDS011;60644;55.858;37.390;2023-03-12T12:38:12;1.38;;;0.10;;
72601;SDS011;60644;55.858;37.390;2023-03-12T12:41:07;1.27;;;0.10;;
72601;SDS011;60644;55.858;37.390;2023-03-12T12:43:39;1.42;;;0.20;;
72601;SDS011;60644;55.858;37.390;2023-03-12T12:46:19;1.83;;;0.10;;
72601;SDS011;60644;55.858;37.390;2023-03-12T12:48:55;1.40;;;0.10;;
72601;SDS011;60644;55.858;37.390;2023-03-12T12:51:26;1.77;;;0.10;;
72601;SDS011;60644;55.858;37.390;2023-03-12T12:54:22;1.48;;;0.10;;
72601;SDS011;60644;55.858;37.390;2023-03-12T12:56:59;2.60;;;0.20;;
72601;SDS011;60644;55.858;37.390;2023-03-12T13:02:23;1.90;;;0.27;;
72601;SDS011;60644;55.858;37.390;2023-03-12T13:04:57;1.45;;;0.20;;
72601;SDS011;60644;55.858;37.390;2023-03-12T13:09:49;1.77;;;0.10;;
72601;SDS011;60644;55.858;37.390;2023-03-12T13:12:24;4.80;;;1.00;;
72601;SDS011;60644;55.858;37.390;2023-03-12T13:15:13;2.77;;;0.43;;
72601;SDS011;60644;55.858;37.390;2023-03-12T13:20:36;2.33;;;0.40;;
72601;SDS011;60644;55.858;37.390;2023-03-12T13:33:52;1.83;;;0.30;;
72601;SDS011;60644;55.858;37.390;2023-03-12T13:36:23;1.48;;;0.22;;
72601;SDS011;60644;55.858;37.390;2023-03-12T13:41:31;2.17;;;0.40;;
72601;SDS011;60644;55.858;37.390;2023-03-12T13:47:00;1.13;;;0.10;;
72601;SDS011;60644;55.858;37.390;2023-03-12T13:49:39;1.83;;;0.20;;
72601;SDS011;60644;55.858;37.390;2023-03-12T13:54:56;2.47;;;0.30;;
72601;SDS011;60644;55.858;37.390;2023-03-12T13:57:38;4.78;;;0.30;;
72601;SDS011;60644;55.858;37.390;2023-03-12T14:03:32;1.00;;;0.10;;
72601;SDS011;60644;55.858;37.390;2023-03-12T14:19:11;1.30;;;0.20;;
72601;SDS011;60644;55.858;37.390;2023-03-12T14:21:39;2.43;;;0.17;;
72601;SDS011;60644;55.858;37.390;2023-03-12T14:24:11;1.13;;;0.10;;
72601;SDS011;60644;55.858;37.390;2023-03-12T14:26:47;2.10;;;0.25;;
72601;SDS011;60644;55.858;37.390;2023-03-12T14:29:21;1.58;;;0.20;;
72601;SDS011;60644;55.858;37.390;2023-03-12T14:32:01;3.38;;;0.47;;
72601;SDS011;60644;55.858;37.390;2023-03-12T14:34:31;1.80;;;0.10;;
72601;SDS011;60644;55.858;37.390;2023-03-12T14:37:14;2.50;;;0.40;;
72601;SDS011;60644;55.858;37.390;2023-03-12T14:39:45;2.65;;;0.45;;
72601;SDS011;60644;55.858;37.390;2023-03-12T14:42:21;1.27;;;0.10;;
72601;SDS011;60644;55.858;37.390;2023-03-12T14:44:56;2.08;;;0.30;;
72601;SDS011;60644;55.858;37.390;2023-03-12T14:47:22;1.43;;;0.20;;
72601;SDS011;60644;55.858;37.390;2023-03-12T14:49:48;2.45;;;0.30;;
72601;SDS011;60644;55.858;37.390;2023-03-12T14:52:21;2.08;;;0.30;;
72601;SDS011;60644;55.858;37.390;2023-03-12T14:54:55;2.97;;;0.57;;
72601;SDS011;60644;55.858;37.390;2023-03-12T14:57:23;4.03;;;0.77;;
72601;SDS011;60644;55.858;37.390;2023-03-12T14:59:53;4.47;;;0.93;;
72601;SDS011;60644;55.858;37.390;2023-03-12T15:02:20;3.28;;;0.70;;
72601;SDS011;60644;55.858;37.390;2023-03-12T15:04:47;3.55;;;0.60;;
72601;SDS011;60644;55.858;37.390;2023-03-12T15:07:17;2.72;;;0.50;;
72601;SDS011;60644;55.858;37.390;2023-03-12T15:09:47;3.03;;;0.47;;
72601;SDS011;60644;55.858;37.390;2023-03-12T15:12:25;3.53;;;0.65;;
72601;SDS011;60644;55.858;37.390;2023-03-12T15:15:09;3.75;;;0.68;;
72601;SDS011;60644;55.858;37.390;2023-03-12T15:17:47;3.38;;;0.57;;
72601;SDS011;60644;55.858;37.390;2023-03-12T15:20:15;4.20;;;0.70;;
72601;SDS011;60644;55.858;37.390;2023-03-12T15:22:41;2.80;;;0.50;;
72601;SDS011;60644;55.858;37.390;2023-03-12T15:25:19;2.67;;;0.43;;
72601;SDS011;60644;55.858;37.390;2023-03-12T15:27:46;3.97;;;0.70;;
72601;SDS011;60644;55.858;37.390;2023-03-12T15:30:22;4.20;;;0.75;;
72601;SDS011;60644;55.858;37.390;2023-03-12T15:35:57;2.75;;;0.40;;
72601;SDS011;60644;55.858;37.390;2023-03-12T15:38:32;3.45;;;0.57;;
72601;SDS011;60644;55.858;37.390;2023-03-12T15:41:05;3.10;;;0.40;;
72601;SDS011;60644;55.858;37.390;2023-03-12T15:43:34;2.55;;;0.40;;
72601;SDS011;60644;55.858;37.390;2023-03-12T15:46:02;3.23;;;0.83;;
72601;SDS011;60644;55.858;37.390;2023-03-12T15:48:39;3.47;;;0.60;;
72601;SDS011;60644;55.858;37.390;2023-03-12T15:51:24;4.78;;;1.10;;
72601;SDS011;60644;55.858;37.390;2023-03-12T15:54:03;4.10;;;0.90;;
72601;SDS011;60644;55.858;37.390;2023-03-12T15:56:30;3.85;;;0.90;;
72601;SDS011;60644;55.858;37.390;2023-03-12T16:01:51;3.70;;;0.90;;
72601;SDS011;60644;55.858;37.390;2023-03-12T16:04:18;3.67;;;0.73;;
72601;SDS011;60644;55.858;37.390;2023-03-12T16:06:45;4.15;;;1.00;;
72601;SDS011;60644;55.858;37.390;2023-03-12T16:09:23;4.57;;;0.70;;
72601;SDS011;60644;55.858;37.390;2023-03-12T16:11:52;2.77;;;0.57;;
72601;SDS011;60644;55.858;37.390;2023-03-12T16:14:29;3.03;;;0.60;;
72601;SDS011;60644;55.858;37.390;2023-03-12T16:16:57;4.30;;;1.00;;
72601;SDS011;60644;55.858;37.390;2023-03-12T16:19:25;4.80;;;1.40;;
72601;SDS011;60644;55.858;37.390;2023-03-12T16:21:53;3.85;;;1.00;;
72601;SDS011;60644;55.858;37.390;2023-03-12T16:24:20;3.20;;;0.70;;
72601;SDS011;60644;55.858;37.390;2023-03-12T16:26:52;4.78;;;1.52;;
72601;SDS011;60644;55.858;37.390;2023-03-12T16:29:21;4.05;;;1.05;;
72601;SDS011;60644;55.858;37.390;2023-03-12T16:31:53;3.55;;;1.00;;
72601;SDS011;60644;55.858;37.390;2023-03-12T16:34:19;4.22;;;1.10;;
72601;SDS011;60644;55.858;37.390;2023-03-12T16:36:45;4.13;;;0.93;;
72601;SDS011;60644;55.858;37.390;2023-03-12T16:39:11;4.65;;;0.68;;
72601;SDS011;60644;55.858;37.390;2023-03-12T16:41:37;4.05;;;0.98;;